createdAt,value
2018-09-24T00:00:27.611Z,1023.32
2018-09-24T00:01:27.611Z,1023.34
2018-09-24T00:02:27.585Z,1023.38
2018-09-24T00:03:27.579Z,1023.33
2018-09-24T00:04:27.560Z,1023.34
2018-09-24T00:05:27.552Z,1023.33
2018-09-24T00:06:27.580Z,1023.33
2018-09-24T00:07:27.545Z,1023.34
2018-09-24T00:08:27.526Z,1023.37
2018-09-24T00:09:27.503Z,1023.39
2018-09-24T00:10:27.499Z,1023.39
2018-09-24T00:11:27.505Z,1023.38
2018-09-24T00:12:27.489Z,1023.36
2018-09-24T00:13:27.466Z,1023.41
2018-09-24T00:14:27.448Z,1023.46
2018-09-24T00:15:27.447Z,1023.54
2018-09-24T00:16:27.442Z,1023.61
2018-09-24T00:17:27.412Z,1023.63
2018-09-24T00:18:27.426Z,1023.63
2018-09-24T00:19:27.417Z,1023.70
2018-09-24T00:20:27.379Z,1023.68
2018-09-24T00:21:27.385Z,1023.69
2018-09-24T00:22:27.402Z,1023.75
2018-09-24T00:23:27.374Z,1023.72
2018-09-24T00:24:27.342Z,1023.73
2018-09-24T00:25:27.340Z,1023.76
2018-09-24T00:26:27.316Z,1023.76
2018-09-24T00:27:27.340Z,1023.75
2018-09-24T00:28:27.311Z,1023.74
2018-09-24T00:29:27.293Z,1023.77
2018-09-24T00:30:27.271Z,1023.77
2018-09-24T00:31:27.268Z,1023.77
2018-09-24T00:32:27.256Z,1023.82
2018-09-24T00:33:27.419Z,1023.90
2018-09-24T00:34:27.228Z,1023.85
2018-09-24T00:35:27.225Z,1023.98
2018-09-24T00:36:27.206Z,1023.92
2018-09-24T00:37:27.220Z,1023.96
2018-09-24T00:38:27.207Z,1023.97
2018-09-24T00:39:27.181Z,1023.97
2018-09-24T00:40:27.162Z,1023.99
2018-09-24T00:41:27.159Z,1023.95
2018-09-24T00:42:27.136Z,1023.98
2018-09-24T00:43:27.268Z,1023.94
2018-09-24T00:44:27.134Z,1023.94
2018-09-24T00:45:27.105Z,1024.01
2018-09-24T00:46:27.105Z,1024.00
2018-09-24T00:47:27.082Z,1024.02
2018-09-24T00:48:27.115Z,1024.02
2018-09-24T00:49:27.062Z,1024.05
2018-09-24T00:50:27.047Z,1024.09
2018-09-24T00:51:27.049Z,1024.11
2018-09-24T00:52:27.037Z,1024.09
2018-09-24T00:53:27.040Z,1024.14
2018-09-24T00:54:27.000Z,1024.14
2018-09-24T00:55:26.990Z,1024.18
2018-09-24T00:56:26.978Z,1024.14
2018-09-24T00:57:26.973Z,1024.17
2018-09-24T00:58:27.016Z,1024.18
2018-09-24T00:59:26.984Z,1024.19
2018-09-24T01:00:26.940Z,1024.21
2018-09-24T01:01:26.935Z,1024.23
2018-09-24T01:02:26.916Z,1024.30
2018-09-24T01:03:26.931Z,1024.37
2018-09-24T01:04:26.898Z,1024.35
2018-09-24T01:05:26.885Z,1024.38
2018-09-24T01:06:26.878Z,1024.41
2018-09-24T01:07:26.863Z,1024.37
2018-09-24T01:08:26.890Z,1024.41
2018-09-24T01:09:26.837Z,1024.44
2018-09-24T01:10:26.832Z,1024.47
2018-09-24T01:11:26.816Z,1024.50
2018-09-24T01:12:26.803Z,1024.58
2018-09-24T01:13:26.798Z,1024.57
2018-09-24T01:14:26.811Z,1024.60
2018-09-24T01:15:26.768Z,1024.57
2018-09-24T01:16:26.773Z,1024.66
2018-09-24T01:17:26.748Z,1024.59
2018-09-24T01:18:26.755Z,1024.61
2018-09-24T01:19:26.730Z,1024.60
2018-09-24T01:20:26.741Z,1024.68
2018-09-24T01:21:26.726Z,1024.68
2018-09-24T01:22:26.712Z,1024.68
2018-09-24T01:23:26.686Z,1024.77
2018-09-24T01:24:26.672Z,1024.78
2018-09-24T01:25:26.681Z,1024.80
2018-09-24T01:26:26.651Z,1024.81
2018-09-24T01:27:26.642Z,1024.90
2018-09-24T01:28:26.632Z,1024.92
2018-09-24T01:29:26.617Z,1024.95
2018-09-24T01:30:26.624Z,1024.93
2018-09-24T01:31:26.596Z,1024.97
2018-09-24T01:32:26.586Z,1024.97
2018-09-24T01:33:26.577Z,1024.97
2018-09-24T01:34:26.599Z,1024.99
2018-09-24T01:35:26.585Z,1025.03
2018-09-24T01:36:26.542Z,1025.06
2018-09-24T01:37:26.534Z,1025.00
2018-09-24T01:38:26.528Z,1025.00
2018-09-24T01:39:26.527Z,1025.03
2018-09-24T01:40:26.529Z,1025.04
2018-09-24T01:41:26.484Z,1025.09
2018-09-24T01:42:26.471Z,1025.17
2018-09-24T01:44:27.593Z,1025.15
2018-09-24T01:45:26.460Z,1025.15
2018-09-24T01:46:26.448Z,1025.14
2018-09-24T01:47:26.428Z,1025.18
2018-09-24T01:48:26.415Z,1025.21
2018-09-24T01:49:26.396Z,1025.17
2018-09-24T01:50:26.405Z,1025.16
2018-09-24T01:51:26.378Z,1025.17
2018-09-24T01:52:26.377Z,1025.17
2018-09-24T01:53:26.354Z,1025.16
2018-09-24T01:54:26.368Z,1025.15
2018-09-24T01:55:26.352Z,1025.20
2018-09-24T01:56:26.346Z,1025.19
2018-09-24T01:57:26.319Z,1025.19
2018-09-24T01:58:26.296Z,1025.19
2018-09-24T01:59:26.287Z,1025.20
2018-09-24T02:00:26.278Z,1025.17
2018-09-24T02:01:26.284Z,1025.27
2018-09-24T02:03:27.409Z,1025.23
2018-09-24T02:04:26.229Z,1025.23
2018-09-24T02:05:26.219Z,1025.22
2018-09-24T02:06:26.228Z,1025.27
2018-09-24T02:07:26.204Z,1025.30
2018-09-24T02:08:26.201Z,1025.33
2018-09-24T02:09:26.179Z,1025.35
2018-09-24T02:10:26.167Z,1025.24
2018-09-24T02:11:26.177Z,1025.24
2018-09-24T02:12:26.165Z,1025.30
2018-09-24T02:13:26.136Z,1025.32
2018-09-24T02:14:26.124Z,1025.32
2018-09-24T02:15:26.112Z,1025.33
2018-09-24T02:16:26.103Z,1025.32
2018-09-24T02:17:26.166Z,1025.35
2018-09-24T02:18:26.084Z,1025.36
2018-09-24T02:19:26.065Z,1025.42
2018-09-24T02:20:26.083Z,1025.43
2018-09-24T02:21:26.046Z,1025.38
2018-09-24T02:22:26.070Z,1025.41
2018-09-24T02:23:26.024Z,1025.43
2018-09-24T02:25:27.188Z,1025.50
2018-09-24T02:26:25.993Z,1025.52
2018-09-24T02:27:26.024Z,1025.54
2018-09-24T02:28:25.970Z,1025.56
2018-09-24T02:29:25.964Z,1025.52
2018-09-24T02:30:25.946Z,1025.51
2018-09-24T02:31:25.934Z,1025.52
2018-09-24T02:32:25.941Z,1025.59
2018-09-24T02:33:25.919Z,1025.63
2018-09-24T02:34:25.905Z,1025.60
2018-09-24T02:35:25.895Z,1025.67
2018-09-24T02:36:25.892Z,1025.62
2018-09-24T02:37:25.893Z,1025.60
2018-09-24T02:38:25.854Z,1025.60
2018-09-24T02:39:25.851Z,1025.61
2018-09-24T02:40:25.846Z,1025.60
2018-09-24T02:41:25.830Z,1025.65
2018-09-24T02:42:25.827Z,1025.71
2018-09-24T02:43:25.807Z,1025.64
2018-09-24T02:44:25.796Z,1025.70
2018-09-24T02:45:25.783Z,1025.74
2018-09-24T02:46:25.778Z,1025.77
2018-09-24T02:47:25.880Z,1025.78
2018-09-24T02:48:25.743Z,1025.80
2018-09-24T02:49:25.748Z,1025.84
2018-09-24T02:50:25.725Z,1025.83
2018-09-24T02:51:25.722Z,1025.87
2018-09-24T02:52:25.731Z,1025.87
2018-09-24T02:53:25.707Z,1025.91
2018-09-24T02:54:25.677Z,1025.88
2018-09-24T02:55:25.670Z,1025.91
2018-09-24T02:57:26.823Z,1025.92
2018-09-24T02:58:25.647Z,1025.94
2018-09-24T02:59:25.634Z,1025.96
2018-09-24T03:00:25.630Z,1025.89
2018-09-24T03:01:25.731Z,1025.91
2018-09-24T03:02:25.617Z,1025.97
2018-09-24T03:03:25.583Z,1025.97
2018-09-24T03:04:25.573Z,1026.02
2018-09-24T03:05:25.556Z,1026.09
2018-09-24T03:06:25.548Z,1026.07
2018-09-24T03:07:25.564Z,1026.13
2018-09-24T03:08:25.536Z,1026.10
2018-09-24T03:09:25.524Z,1026.08
2018-09-24T03:10:25.512Z,1026.11
2018-09-24T03:11:25.493Z,1026.19
2018-09-24T03:12:25.568Z,1026.17
2018-09-24T03:13:25.475Z,1026.15
2018-09-24T03:14:25.466Z,1026.18
2018-09-24T03:15:25.461Z,1026.17
2018-09-24T03:16:25.462Z,1026.16
2018-09-24T03:17:25.479Z,1026.16
2018-09-24T03:18:25.424Z,1026.17
2018-09-24T03:19:25.400Z,1026.15
2018-09-24T03:20:25.402Z,1026.19
2018-09-24T03:21:25.394Z,1026.25
2018-09-24T03:22:25.390Z,1026.25
2018-09-24T03:24:26.488Z,1026.21
2018-09-24T03:25:25.344Z,1026.24
2018-09-24T03:26:25.379Z,1026.22
2018-09-24T03:27:25.351Z,1026.27
2018-09-24T03:28:25.300Z,1026.29
2018-09-24T03:29:25.300Z,1026.27
2018-09-24T03:30:25.290Z,1026.30
2018-09-24T03:31:25.284Z,1026.33
2018-09-24T03:32:25.281Z,1026.33
2018-09-24T03:33:25.258Z,1026.29
2018-09-24T03:34:25.239Z,1026.32
2018-09-24T03:36:26.361Z,1026.32
2018-09-24T03:37:25.242Z,1026.38
2018-09-24T03:38:25.276Z,1026.41
2018-09-24T03:40:26.333Z,1026.40
2018-09-24T03:41:25.160Z,1026.48
2018-09-24T03:42:25.194Z,1026.58
2018-09-24T03:43:25.181Z,1026.57
2018-09-24T03:44:25.134Z,1026.72
2018-09-24T03:45:25.156Z,1026.61
2018-09-24T03:46:25.107Z,1026.67
2018-09-24T03:47:25.102Z,1026.72
2018-09-24T03:49:26.210Z,1026.57
2018-09-24T03:50:25.065Z,1026.59
2018-09-24T03:51:25.074Z,1026.61
2018-09-24T03:52:25.085Z,1026.59
2018-09-24T03:53:25.060Z,1026.62
2018-09-24T03:54:25.026Z,1026.63
2018-09-24T03:55:25.035Z,1026.69
2018-09-24T03:56:25.009Z,1026.66
2018-09-24T03:57:24.988Z,1026.58
2018-09-24T03:58:25.013Z,1026.58
2018-09-24T03:59:24.983Z,1026.62
2018-09-24T04:00:24.965Z,1026.60
2018-09-24T04:01:24.941Z,1026.58
2018-09-24T04:02:24.928Z,1026.60
2018-09-24T04:03:24.951Z,1026.64
2018-09-24T04:04:24.932Z,1026.62
2018-09-24T04:06:26.050Z,1026.64
2018-09-24T04:07:24.877Z,1026.66
2018-09-24T04:08:24.874Z,1026.74
2018-09-24T04:09:24.905Z,1026.74
2018-09-24T04:10:24.840Z,1026.76
2018-09-24T04:12:24.821Z,1026.82
2018-09-24T04:13:24.819Z,1026.89
2018-09-24T04:14:24.820Z,1026.88
2018-09-24T04:15:24.786Z,1026.89
2018-09-24T04:16:24.781Z,1026.94
2018-09-24T04:17:24.779Z,1026.90
2018-09-24T04:18:24.763Z,1027.00
2018-09-24T04:19:24.783Z,1027.01
2018-09-24T04:20:24.733Z,1026.98
2018-09-24T04:21:24.720Z,1027.05
2018-09-24T04:22:24.723Z,1027.02
2018-09-24T04:23:24.702Z,1027.05
2018-09-24T04:24:24.713Z,1027.06
2018-09-24T04:25:24.685Z,1027.08
2018-09-24T04:26:24.806Z,1027.02
2018-09-24T04:27:24.664Z,1027.02
2018-09-24T04:28:24.655Z,1027.00
2018-09-24T04:29:24.673Z,1027.04
2018-09-24T04:30:24.621Z,1026.98
2018-09-24T04:31:24.611Z,1026.98
2018-09-24T04:32:24.609Z,1027.01
2018-09-24T04:33:24.590Z,1027.04
2018-09-24T04:34:24.620Z,1027.02
2018-09-24T04:35:24.576Z,1027.05
2018-09-24T04:36:24.558Z,1027.08
2018-09-24T04:37:24.547Z,1027.08
2018-09-24T04:38:24.536Z,1027.13
2018-09-24T04:39:24.543Z,1027.10
2018-09-24T04:40:24.556Z,1027.12
2018-09-24T04:41:24.511Z,1027.12
2018-09-24T04:42:24.490Z,1027.10
2018-09-24T04:43:24.489Z,1027.15
2018-09-24T04:44:24.467Z,1027.12
2018-09-24T04:45:24.490Z,1027.14
2018-09-24T04:46:24.444Z,1027.13
2018-09-24T04:47:24.469Z,1027.18
2018-09-24T04:48:24.428Z,1027.21
2018-09-24T04:49:24.419Z,1027.21
2018-09-24T04:50:24.447Z,1027.27
2018-09-24T04:51:24.392Z,1027.27
2018-09-24T04:52:24.377Z,1027.31
2018-09-24T04:53:24.366Z,1027.35
2018-09-24T04:54:24.379Z,1027.38
2018-09-24T04:55:24.377Z,1027.40
2018-09-24T04:56:24.339Z,1027.42
2018-09-24T04:57:24.351Z,1027.42
2018-09-24T04:58:24.321Z,1027.45
2018-09-24T04:59:24.305Z,1027.44
2018-09-24T05:00:24.291Z,1027.48
2018-09-24T05:01:24.328Z,1027.46
2018-09-24T05:02:24.274Z,1027.48
2018-09-24T05:03:24.264Z,1027.47
2018-09-24T05:04:24.260Z,1027.54
2018-09-24T05:05:24.249Z,1027.49
2018-09-24T05:06:24.252Z,1027.50
2018-09-24T05:07:24.221Z,1027.52
2018-09-24T05:08:24.230Z,1027.53
2018-09-24T05:09:24.193Z,1027.55
2018-09-24T05:10:24.186Z,1027.57
2018-09-24T05:11:24.189Z,1027.54
2018-09-24T05:12:24.158Z,1027.61
2018-09-24T05:13:24.161Z,1027.63
2018-09-24T05:14:24.149Z,1027.65
2018-09-24T05:15:24.139Z,1027.67
2018-09-24T05:16:24.198Z,1027.64
2018-09-24T05:17:24.139Z,1027.69
2018-09-24T05:18:24.115Z,1027.72
2018-09-24T05:19:24.090Z,1027.71
2018-09-24T05:20:24.072Z,1027.75
2018-09-24T05:21:24.080Z,1027.73
2018-09-24T05:22:24.063Z,1027.75
2018-09-24T05:23:24.040Z,1027.71
2018-09-24T05:24:24.025Z,1027.71
2018-09-24T05:25:24.017Z,1027.77
2018-09-24T05:26:24.095Z,1027.78
2018-09-24T05:27:24.100Z,1027.79
2018-09-24T05:28:24.005Z,1027.81
2018-09-24T05:29:23.991Z,1027.82
2018-09-24T05:30:23.973Z,1027.84
2018-09-24T05:31:23.974Z,1027.84
2018-09-24T05:32:23.984Z,1027.80
2018-09-24T05:33:23.972Z,1027.86
2018-09-24T05:34:23.980Z,1027.84
2018-09-24T05:35:23.921Z,1027.90
2018-09-24T05:36:23.924Z,1027.89
2018-09-24T05:37:23.886Z,1027.92
2018-09-24T05:38:23.879Z,1027.99
2018-09-24T05:39:23.872Z,1027.93
2018-09-24T05:40:23.864Z,1028.03
2018-09-24T05:41:23.926Z,1028.07
2018-09-24T05:42:23.835Z,1028.02
2018-09-24T05:43:23.822Z,1028.02
2018-09-24T05:44:23.808Z,1028.03
2018-09-24T05:45:23.802Z,1028.06
2018-09-24T05:46:23.793Z,1028.06
2018-09-24T05:47:23.796Z,1028.01
2018-09-24T05:48:23.767Z,1028.02
2018-09-24T05:49:23.765Z,1028.08
2018-09-24T05:50:23.751Z,1028.07
2018-09-24T05:51:23.726Z,1028.08
2018-09-24T05:52:23.751Z,1028.11
2018-09-24T05:53:23.718Z,1028.13
2018-09-24T05:54:23.830Z,1028.14
2018-09-24T05:55:23.691Z,1028.21
2018-09-24T05:56:23.686Z,1028.16
2018-09-24T05:57:23.792Z,1028.17
2018-09-24T05:58:23.653Z,1028.21
2018-09-24T05:59:23.677Z,1028.21
2018-09-24T06:00:23.632Z,1028.24
2018-09-24T06:01:23.632Z,1028.26
2018-09-24T06:02:23.629Z,1028.27
2018-09-24T06:03:23.606Z,1028.30
2018-09-24T06:04:23.673Z,1028.35
2018-09-24T06:05:23.577Z,1028.38
2018-09-24T06:06:23.569Z,1028.37
2018-09-24T06:07:23.615Z,1028.45
2018-09-24T06:08:23.547Z,1028.43
2018-09-24T06:09:23.536Z,1028.42
2018-09-24T06:10:23.525Z,1028.44
2018-09-24T06:11:23.547Z,1028.38
2018-09-24T06:12:23.523Z,1028.40
2018-09-24T06:13:23.493Z,1028.45
2018-09-24T06:14:23.482Z,1028.39
2018-09-24T06:15:23.479Z,1028.42
2018-09-24T06:16:23.456Z,1028.42
2018-09-24T06:17:23.471Z,1028.39
2018-09-24T06:18:23.442Z,1028.37
2018-09-24T06:19:23.421Z,1028.39
2018-09-24T06:20:23.426Z,1028.41
2018-09-24T06:21:23.421Z,1028.43
2018-09-24T06:22:23.405Z,1028.47
2018-09-24T06:23:23.405Z,1028.41
2018-09-24T06:24:23.369Z,1028.47
2018-09-24T06:25:23.359Z,1028.49
2018-09-24T06:26:23.347Z,1028.51
2018-09-24T06:27:23.340Z,1028.53
2018-09-24T06:28:23.381Z,1028.56
2018-09-24T06:29:23.327Z,1028.55
2018-09-24T06:30:23.323Z,1028.58
2018-09-24T06:31:23.325Z,1028.59
2018-09-24T06:32:23.309Z,1028.55
2018-09-24T06:33:23.313Z,1028.59
2018-09-24T06:34:23.324Z,1028.58
2018-09-24T06:35:23.265Z,1028.56
2018-09-24T06:36:23.242Z,1028.62
2018-09-24T06:37:23.312Z,1028.63
2018-09-24T06:38:23.230Z,1028.60
2018-09-24T06:39:23.222Z,1028.66
2018-09-24T06:40:23.198Z,1028.67
2018-09-24T06:41:23.193Z,1028.62
2018-09-24T06:42:23.173Z,1028.62
2018-09-24T06:43:23.181Z,1028.68
2018-09-24T06:44:23.148Z,1028.68
2018-09-24T06:45:23.146Z,1028.69
2018-09-24T06:46:23.137Z,1028.78
2018-09-24T06:47:23.129Z,1028.74
2018-09-24T06:48:23.214Z,1028.78
2018-09-24T06:49:23.091Z,1028.76
2018-09-24T06:50:23.085Z,1028.85
2018-09-24T06:51:23.083Z,1028.86
2018-09-24T06:52:23.078Z,1028.81
2018-09-24T06:53:23.093Z,1028.87
2018-09-24T06:54:23.038Z,1028.84
2018-09-24T06:55:23.027Z,1028.83
2018-09-24T06:56:23.034Z,1028.84
2018-09-24T06:57:23.011Z,1028.92
2018-09-24T06:58:23.018Z,1028.85
2018-09-24T06:59:23.021Z,1028.88
2018-09-24T07:00:22.990Z,1028.91
2018-09-24T07:01:22.961Z,1028.88
2018-09-24T07:02:22.958Z,1028.91
2018-09-24T07:03:22.946Z,1028.95
2018-09-24T07:04:22.957Z,1028.95
2018-09-24T07:05:23.019Z,1028.95
2018-09-24T07:06:22.917Z,1028.97
2018-09-24T07:07:22.891Z,1028.96
2018-09-24T07:08:22.881Z,1028.97
2018-09-24T07:09:22.904Z,1028.97
2018-09-24T07:10:22.886Z,1029.01
2018-09-24T07:11:22.958Z,1029.07
2018-09-24T07:12:22.849Z,1029.11
2018-09-24T07:13:22.828Z,1029.09
2018-09-24T07:14:22.863Z,1029.14
2018-09-24T07:15:22.818Z,1029.16
2018-09-24T07:16:22.823Z,1029.16
2018-09-24T07:17:22.783Z,1029.24
2018-09-24T07:18:22.767Z,1029.26
2018-09-24T07:19:22.810Z,1029.26
2018-09-24T07:20:22.744Z,1029.29
2018-09-24T07:21:22.783Z,1029.29
2018-09-24T07:22:22.723Z,1029.28
2018-09-24T07:23:22.733Z,1029.32
2018-09-24T07:24:22.741Z,1029.30
2018-09-24T07:25:22.714Z,1029.35
2018-09-24T07:26:22.683Z,1029.35
2018-09-24T07:27:22.668Z,1029.32
2018-09-24T07:28:22.696Z,1029.41
2018-09-24T07:29:22.660Z,1029.46
2018-09-24T07:30:22.678Z,1029.37
2018-09-24T07:31:22.631Z,1029.37
2018-09-24T07:32:22.624Z,1029.35
2018-09-24T07:33:22.659Z,1029.38
2018-09-24T07:34:22.596Z,1029.42
2018-09-24T07:35:22.600Z,1029.45
2018-09-24T07:36:22.581Z,1029.46
2018-09-24T07:37:22.568Z,1029.46
2018-09-24T07:38:22.558Z,1029.57
2018-09-24T07:39:22.564Z,1029.56
2018-09-24T07:40:22.549Z,1029.59
2018-09-24T07:41:22.535Z,1029.54
2018-09-24T07:42:22.510Z,1029.60
2018-09-24T07:43:22.582Z,1029.58
2018-09-24T07:44:22.495Z,1029.62
2018-09-24T07:45:22.464Z,1029.65
2018-09-24T07:46:22.493Z,1029.66
2018-09-24T07:47:22.447Z,1029.71
2018-09-24T07:48:22.439Z,1029.80
2018-09-24T07:49:22.458Z,1029.70
2018-09-24T07:50:22.413Z,1029.66
2018-09-24T07:51:22.445Z,1029.71
2018-09-24T07:52:22.398Z,1029.68
2018-09-24T07:53:22.385Z,1029.64
2018-09-24T07:55:23.530Z,1029.79
2018-09-24T07:56:22.384Z,1029.87
2018-09-24T07:57:22.331Z,1029.89
2018-09-24T07:58:22.326Z,1029.94
2018-09-24T07:59:22.322Z,1030.05
2018-09-24T08:00:22.312Z,1029.95
2018-09-24T08:01:22.322Z,1029.90
2018-09-24T08:02:22.282Z,1029.92
2018-09-24T08:03:22.284Z,1029.97
2018-09-24T08:04:22.274Z,1029.97
2018-09-24T08:05:22.275Z,1029.90
2018-09-24T08:06:22.268Z,1029.97
2018-09-24T08:07:22.275Z,1029.98
2018-09-24T08:08:22.209Z,1030.03
2018-09-24T08:09:22.213Z,1029.94
2018-09-24T08:10:22.200Z,1029.94
2018-09-24T08:11:22.202Z,1030.04
2018-09-24T08:12:22.197Z,1029.91
2018-09-24T08:13:22.245Z,1030.00
2018-09-24T08:14:22.155Z,1030.05
2018-09-24T08:15:22.150Z,1030.25
2018-09-24T08:16:22.163Z,1030.11
2018-09-24T08:17:22.118Z,1030.10
2018-09-24T08:18:22.114Z,1030.05
2018-09-24T08:19:22.098Z,1030.12
2018-09-24T08:20:22.089Z,1030.20
2018-09-24T08:21:22.106Z,1030.25
2018-09-24T08:22:22.087Z,1030.28
2018-09-24T08:23:22.063Z,1030.36
2018-09-24T08:24:22.034Z,1030.45
2018-09-24T08:25:22.031Z,1030.33
2018-09-24T08:26:22.030Z,1030.25
2018-09-24T08:27:22.037Z,1030.31
2018-09-24T08:28:22.002Z,1030.27
2018-09-24T08:29:21.990Z,1030.32
2018-09-24T08:30:21.971Z,1030.44
2018-09-24T08:31:21.958Z,1030.43
2018-09-24T08:32:21.979Z,1030.41
2018-09-24T08:33:21.947Z,1030.41
2018-09-24T08:34:21.933Z,1030.31
2018-09-24T08:35:21.925Z,1030.27
2018-09-24T08:36:21.935Z,1030.35
2018-09-24T08:37:21.924Z,1030.29
2018-09-24T08:38:21.894Z,1030.28
2018-09-24T08:39:21.885Z,1030.26
2018-09-24T08:40:21.879Z,1030.25
2018-09-24T08:41:21.858Z,1030.29
2018-09-24T08:42:21.857Z,1030.27
2018-09-24T08:43:21.830Z,1030.23
2018-09-24T08:44:21.815Z,1030.35
2018-09-24T08:45:21.829Z,1030.37
2018-09-24T08:46:21.817Z,1030.33
2018-09-24T08:47:21.818Z,1030.29
2018-09-24T08:48:21.798Z,1030.26
2018-09-24T08:49:21.770Z,1030.29
2018-09-24T08:50:21.756Z,1030.33
2018-09-24T08:51:21.739Z,1030.28
2018-09-24T08:52:21.751Z,1030.32
2018-09-24T08:53:21.790Z,1030.39
2018-09-24T08:54:21.712Z,1030.44
2018-09-24T08:55:21.753Z,1030.42
2018-09-24T08:56:21.698Z,1030.47
2018-09-24T08:57:21.775Z,1030.49
2018-09-24T08:58:21.698Z,1030.51
2018-09-24T08:59:21.653Z,1030.51
2018-09-24T09:00:21.638Z,1030.51
2018-09-24T09:01:21.632Z,1030.56
2018-09-24T09:02:21.637Z,1030.56
2018-09-24T09:03:21.633Z,1030.53
2018-09-24T09:04:21.597Z,1030.52
2018-09-24T09:05:21.600Z,1030.51
2018-09-24T09:06:21.590Z,1030.56
2018-09-24T09:07:21.566Z,1030.49
2018-09-24T09:08:21.736Z,1030.59
2018-09-24T09:09:21.569Z,1030.56
2018-09-24T09:10:21.540Z,1030.64
2018-09-24T09:11:21.520Z,1030.66
2018-09-24T09:12:21.516Z,1030.62
2018-09-24T09:13:21.514Z,1030.64
2018-09-24T09:14:21.506Z,1030.76
2018-09-24T09:15:21.519Z,1030.74
2018-09-24T09:16:21.491Z,1030.74
2018-09-24T09:17:21.451Z,1030.65
2018-09-24T09:18:21.479Z,1030.61
2018-09-24T09:19:21.435Z,1030.62
2018-09-24T09:21:22.557Z,1030.72
2018-09-24T09:22:21.397Z,1030.67
2018-09-24T09:23:21.408Z,1030.71
2018-09-24T09:24:21.377Z,1030.74
2018-09-24T09:25:21.374Z,1030.72
2018-09-24T09:26:21.377Z,1030.71
2018-09-24T09:27:21.353Z,1030.84
2018-09-24T09:28:21.381Z,1030.87
2018-09-24T09:29:21.342Z,1030.84
2018-09-24T09:30:21.314Z,1030.83
2018-09-24T09:31:21.318Z,1030.79
2018-09-24T09:32:21.325Z,1030.70
2018-09-24T09:33:21.304Z,1030.74
2018-09-24T09:34:21.274Z,1030.71
2018-09-24T09:35:21.339Z,1030.75
2018-09-24T09:36:21.267Z,1030.75
2018-09-24T09:37:21.243Z,1030.75
2018-09-24T09:38:21.361Z,1030.77
2018-09-24T09:39:21.268Z,1030.86
2018-09-24T09:40:21.205Z,1030.80
2018-09-24T09:41:21.212Z,1030.84
2018-09-24T09:42:21.189Z,1030.78
2018-09-24T09:43:21.210Z,1030.81
2018-09-24T09:44:21.165Z,1030.85
2018-09-24T09:45:21.156Z,1030.87
2018-09-24T09:46:21.141Z,1030.86
2018-09-24T09:48:22.284Z,1030.94
2018-09-24T09:49:21.133Z,1030.91
2018-09-24T09:50:21.104Z,1030.97
2018-09-24T09:51:21.091Z,1030.92
2018-09-24T09:52:21.077Z,1030.75
2018-09-24T09:53:21.066Z,1030.78
2018-09-24T09:54:21.096Z,1030.79
2018-09-24T09:55:21.065Z,1030.85
2018-09-24T09:56:21.022Z,1030.80
2018-09-24T09:57:21.015Z,1030.80
2018-09-24T09:58:21.018Z,1030.73
2018-09-24T09:59:21.051Z,1030.84
2018-09-24T10:00:21.020Z,1030.72
2018-09-24T10:01:20.983Z,1030.84
2018-09-24T10:02:20.973Z,1030.72
2018-09-24T10:03:20.958Z,1030.81
2018-09-24T10:04:20.970Z,1030.81
2018-09-24T10:05:20.932Z,1030.74
2018-09-24T10:06:20.924Z,1030.71
2018-09-24T10:07:20.907Z,1030.75
2018-09-24T10:08:20.903Z,1030.73
2018-09-24T10:09:20.904Z,1030.72
2018-09-24T10:10:20.871Z,1030.67
2018-09-24T10:11:20.902Z,1030.68
2018-09-24T10:12:20.880Z,1030.68
2018-09-24T10:13:20.838Z,1030.79
2018-09-24T10:14:20.852Z,1030.73
2018-09-24T10:15:20.824Z,1030.77
2018-09-24T10:16:20.839Z,1030.73
2018-09-24T10:17:20.808Z,1030.75
2018-09-24T10:18:20.792Z,1030.70
2018-09-24T10:19:20.819Z,1030.66
2018-09-24T10:20:20.800Z,1030.73
2018-09-24T10:21:20.756Z,1030.68
2018-09-24T10:22:20.749Z,1030.69
2018-09-24T10:23:20.736Z,1030.75
2018-09-24T10:24:20.755Z,1030.64
2018-09-24T10:25:20.740Z,1030.79
2018-09-24T10:26:20.716Z,1030.76
2018-09-24T10:27:20.687Z,1030.76
2018-09-24T10:28:20.684Z,1030.75
2018-09-24T10:29:20.693Z,1030.65
2018-09-24T10:30:20.679Z,1030.67
2018-09-24T10:31:20.650Z,1030.64
2018-09-24T10:32:20.639Z,1030.80
2018-09-24T10:33:20.635Z,1030.85
2018-09-24T10:34:20.611Z,1030.80
2018-09-24T10:35:20.615Z,1030.73
2018-09-24T10:36:20.628Z,1030.92
2018-09-24T10:37:20.590Z,1030.85
2018-09-24T10:38:20.569Z,1030.95
2018-09-24T10:39:20.560Z,1031.02
2018-09-24T10:40:20.552Z,1030.96
2018-09-24T10:41:20.632Z,1030.76
2018-09-24T10:42:20.521Z,1030.76
2018-09-24T10:43:20.514Z,1030.90
2018-09-24T10:44:20.501Z,1030.94
2018-09-24T10:45:20.500Z,1030.77
2018-09-24T10:46:20.508Z,1030.81
2018-09-24T10:47:20.482Z,1030.75
2018-09-24T10:48:20.458Z,1030.83
2018-09-24T10:49:20.451Z,1030.75
2018-09-24T10:50:20.437Z,1030.87
2018-09-24T10:51:20.462Z,1030.77
2018-09-24T10:52:20.416Z,1030.75
2018-09-24T10:53:20.405Z,1030.83
2018-09-24T10:54:20.394Z,1030.73
2018-09-24T10:55:20.390Z,1030.78
2018-09-24T10:56:20.389Z,1030.80
2018-09-24T10:57:20.405Z,1030.85
2018-09-24T10:58:20.352Z,1030.90
2018-09-24T10:59:20.381Z,1030.91
2018-09-24T11:00:20.334Z,1030.92
2018-09-24T11:01:20.321Z,1030.89
2018-09-24T11:02:20.328Z,1030.89
2018-09-24T11:03:20.314Z,1030.96
2018-09-24T11:04:20.302Z,1030.99
2018-09-24T11:05:20.272Z,1030.96
2018-09-24T11:06:20.266Z,1030.89
2018-09-24T11:07:21.358Z,1030.91
2018-09-24T11:08:20.237Z,1030.98
2018-09-24T11:09:20.233Z,1030.86
2018-09-24T11:10:20.294Z,1030.91
2018-09-24T11:11:20.326Z,1030.91
2018-09-24T11:12:20.224Z,1030.89
2018-09-24T11:13:20.189Z,1030.89
2018-09-24T11:14:20.181Z,1031.00
2018-09-24T11:15:20.185Z,1031.04
2018-09-24T11:16:20.254Z,1030.94
2018-09-24T11:17:20.263Z,1030.95
2018-09-24T11:18:20.207Z,1030.93
2018-09-24T11:19:20.149Z,1030.98
2018-09-24T11:20:20.141Z,1030.92
2018-09-24T11:21:20.107Z,1030.85
2018-09-24T11:22:20.144Z,1030.98
2018-09-24T11:23:20.087Z,1031.05
2018-09-24T11:24:20.062Z,1030.94
2018-09-24T11:25:20.047Z,1030.99
2018-09-24T11:27:21.023Z,1031.01
2018-09-24T11:28:20.034Z,1031.04
2018-09-24T11:29:20.288Z,1031.00
2018-09-24T11:30:20.002Z,1031.00
2018-09-24T11:31:19.984Z,1031.17
2018-09-24T11:32:19.972Z,1031.29
2018-09-24T11:33:19.984Z,1031.22
2018-09-24T11:34:19.954Z,1031.27
2018-09-24T11:35:19.937Z,1031.40
2018-09-24T11:36:19.939Z,1031.31
2018-09-24T11:37:19.930Z,1031.31
2018-09-24T11:38:19.936Z,1031.35
2018-09-24T11:39:19.895Z,1031.33
2018-09-24T11:40:19.928Z,1031.33
2018-09-24T11:41:19.869Z,1031.30
2018-09-24T11:42:19.857Z,1031.36
2018-09-24T11:43:19.896Z,1031.41
2018-09-24T11:44:19.857Z,1031.27
2018-09-24T11:45:19.830Z,1031.34
2018-09-24T11:46:19.816Z,1031.37
2018-09-24T11:47:19.823Z,1031.35
2018-09-24T11:48:19.815Z,1031.34
2018-09-24T11:49:19.803Z,1031.34
2018-09-24T11:50:19.783Z,1031.38
2018-09-24T11:51:19.779Z,1031.43
2018-09-24T11:52:19.750Z,1031.46
2018-09-24T11:53:19.796Z,1031.37
2018-09-24T11:54:19.729Z,1031.34
2018-09-24T11:55:19.735Z,1031.30
2018-09-24T11:56:19.738Z,1031.24
2018-09-24T11:57:19.699Z,1031.25
2018-09-24T11:58:19.708Z,1031.24
2018-09-24T11:59:19.690Z,1031.29
2018-09-24T12:00:19.665Z,1031.27
2018-09-24T12:01:19.658Z,1031.24
2018-09-24T12:02:19.682Z,1031.20
2018-09-24T12:03:19.631Z,1031.20
2018-09-24T12:04:19.641Z,1031.19
2018-09-24T12:05:19.634Z,1031.23
2018-09-24T12:06:19.616Z,1031.18
2018-09-24T12:07:19.608Z,1031.14
2018-09-24T12:08:19.575Z,1031.16
2018-09-24T12:09:19.602Z,1031.10
2018-09-24T12:10:19.573Z,1031.08
2018-09-24T12:11:19.545Z,1031.10
2018-09-24T12:12:19.537Z,1031.10
2018-09-24T12:13:19.532Z,1031.18
2018-09-24T12:14:19.565Z,1031.20
2018-09-24T12:15:19.498Z,1031.18
2018-09-24T12:16:19.504Z,1031.24
2018-09-24T12:17:19.510Z,1031.27
2018-09-24T12:18:19.469Z,1031.26
2018-09-24T12:19:19.497Z,1031.23